sensor_id;sensor_type;location;lat;lon;timestamp;temperature;humidity
54124;DHT22;55741;53.252;5.788;2023-06-22T00:02:17;16.90;99.90
54124;DHT22;55741;53.252;5.788;2023-06-22T00:04:43;16.80;99.90
54124;DHT22;55741;53.252;5.788;2023-06-22T00:07:09;16.80;99.90
54124;DHT22;55741;53.252;5.788;2023-06-22T00:09:35;16.80;99.90
54124;DHT22;55741;53.252;5.788;2023-06-22T00:12:01;16.80;99.90
54124;DHT22;55741;53.252;5.788;2023-06-22T00:14:27;16.80;99.90
54124;DHT22;55741;53.252;5.788;2023-06-22T00:16:53;16.80;99.90
54124;DHT22;55741;53.252;5.788;2023-06-22T00:19:21;16.80;99.90
54124;DHT22;55741;53.252;5.788;2023-06-22T00:21:47;16.80;99.90
54124;DHT22;55741;53.252;5.788;2023-06-22T00:24:21;16.80;99.90
54124;DHT22;55741;53.252;5.788;2023-06-22T00:26:50;16.90;99.90
54124;DHT22;55741;53.252;5.788;2023-06-22T00:29:16;16.80;99.90
54124;DHT22;55741;53.252;5.788;2023-06-22T00:31:42;16.90;99.90
54124;DHT22;55741;53.252;5.788;2023-06-22T00:34:08;16.90;99.90
54124;DHT22;55741;53.252;5.788;2023-06-22T00:36:35;16.90;99.90
54124;DHT22;55741;53.252;5.788;2023-06-22T00:39:01;16.90;99.90
54124;DHT22;55741;53.252;5.788;2023-06-22T00:41:27;16.90;99.90
54124;DHT22;55741;53.252;5.788;2023-06-22T00:43:56;16.90;99.90
54124;DHT22;55741;53.252;5.788;2023-06-22T00:46:22;16.90;99.90
54124;DHT22;55741;53.252;5.788;2023-06-22T00:48:50;16.90;99.90
54124;DHT22;55741;53.252;5.788;2023-06-22T00:51:17;16.90;99.90
54124;DHT22;55741;53.252;5.788;2023-06-22T00:53:43;16.90;99.90
54124;DHT22;55741;53.252;5.788;2023-06-22T00:56:10;16.90;99.90
54124;DHT22;55741;53.252;5.788;2023-06-22T00:58:38;16.90;99.90
54124;DHT22;55741;53.252;5.788;2023-06-22T01:01:07;16.90;99.90
54124;DHT22;55741;53.252;5.788;2023-06-22T01:03:33;16.90;99.90
54124;DHT22;55741;53.252;5.788;2023-06-22T01:06:08;16.90;99.90
54124;DHT22;55741;53.252;5.788;2023-06-22T01:08:48;17.00;99.90
54124;DHT22;55741;53.252;5.788;2023-06-22T01:11:22;17.00;99.90
54124;DHT22;55741;53.252;5.788;2023-06-22T01:16:25;17.00;99.90
54124;DHT22;55741;53.252;5.788;2023-06-22T01:18:55;17.00;99.90
54124;DHT22;55741;53.252;5.788;2023-06-22T01:21:23;17.00;99.90
54124;DHT22;55741;53.252;5.788;2023-06-22T01:24:23;17.00;99.90
54124;DHT22;55741;53.252;5.788;2023-06-22T01:29:28;17.00;99.90
54124;DHT22;55741;53.252;5.788;2023-06-22T01:31:56;17.00;99.90
54124;DHT22;55741;53.252;5.788;2023-06-22T01:34:23;16.90;99.90
54124;DHT22;55741;53.252;5.788;2023-06-22T01:36:50;16.90;99.90
54124;DHT22;55741;53.252;5.788;2023-06-22T01:39:17;16.90;99.90
54124;DHT22;55741;53.252;5.788;2023-06-22T01:41:44;16.90;99.90
54124;DHT22;55741;53.252;5.788;2023-06-22T01:44:10;16.90;99.90
54124;DHT22;55741;53.252;5.788;2023-06-22T01:46:38;16.90;99.90
54124;DHT22;55741;53.252;5.788;2023-06-22T01:49:06;16.90;99.90
54124;DHT22;55741;53.252;5.788;2023-06-22T01:51:33;16.90;99.90
54124;DHT22;55741;53.252;5.788;2023-06-22T01:53:58;16.90;99.90
54124;DHT22;55741;53.252;5.788;2023-06-22T01:56:26;16.80;99.90
54124;DHT22;55741;53.252;5.788;2023-06-22T01:59:05;16.80;99.90
54124;DHT22;55741;53.252;5.788;2023-06-22T02:01:39;16.80;99.90
54124;DHT22;55741;53.252;5.788;2023-06-22T02:04:13;16.80;99.90
54124;DHT22;55741;53.252;5.788;2023-06-22T02:06:42;16.70;99.90
54124;DHT22;55741;53.252;5.788;2023-06-22T02:09:15;16.70;99.90
54124;DHT22;55741;53.252;5.788;2023-06-22T02:11:44;16.60;99.90
54124;DHT22;55741;53.252;5.788;2023-06-22T02:14:12;16.50;99.90
54124;DHT22;55741;53.252;5.788;2023-06-22T02:16:39;16.50;99.90
54124;DHT22;55741;53.252;5.788;2023-06-22T02:19:06;16.50;99.90
54124;DHT22;55741;53.252;5.788;2023-06-22T02:21:32;16.50;99.90
54124;DHT22;55741;53.252;5.788;2023-06-22T02:23:58;16.50;99.90
54124;DHT22;55741;53.252;5.788;2023-06-22T02:26:25;16.50;99.90
54124;DHT22;55741;53.252;5.788;2023-06-22T02:28:52;16.50;99.90
54124;DHT22;55741;53.252;5.788;2023-06-22T02:31:18;16.50;99.90
54124;DHT22;55741;53.252;5.788;2023-06-22T02:33:44;16.50;99.90
54124;DHT22;55741;53.252;5.788;2023-06-22T02:36:10;16.50;99.90
54124;DHT22;55741;53.252;5.788;2023-06-22T02:38:43;16.50;99.90
54124;DHT22;55741;53.252;5.788;2023-06-22T02:41:14;16.50;99.90
54124;DHT22;55741;53.252;5.788;2023-06-22T02:43:46;16.40;99.90
54124;DHT22;55741;53.252;5.788;2023-06-22T02:46:13;16.40;99.90
54124;DHT22;55741;53.252;5.788;2023-06-22T02:48:42;16.40;99.90
54124;DHT22;55741;53.252;5.788;2023-06-22T02:51:09;16.30;99.90
54124;DHT22;55741;53.252;5.788;2023-06-22T02:53:35;16.30;99.90
54124;DHT22;55741;53.252;5.788;2023-06-22T02:56:04;16.30;99.90
54124;DHT22;55741;53.252;5.788;2023-06-22T02:58:32;16.30;99.90
54124;DHT22;55741;53.252;5.788;2023-06-22T03:01:07;16.30;99.90
54124;DHT22;55741;53.252;5.788;2023-06-22T03:03:32;16.30;99.90
54124;DHT22;55741;53.252;5.788;2023-06-22T03:05:58;16.30;99.90
54124;DHT22;55741;53.252;5.788;2023-06-22T03:08:26;16.30;99.90
54124;DHT22;55741;53.252;5.788;2023-06-22T03:10:52;16.30;99.90
54124;DHT22;55741;53.252;5.788;2023-06-22T03:13:18;16.30;99.90
54124;DHT22;55741;53.252;5.788;2023-06-22T03:15:43;16.30;99.90
54124;DHT22;55741;53.252;5.788;2023-06-22T03:18:09;16.30;99.90
54124;DHT22;55741;53.252;5.788;2023-06-22T03:20:35;16.20;99.90
54124;DHT22;55741;53.252;5.788;2023-06-22T03:23:01;16.20;99.90
54124;DHT22;55741;53.252;5.788;2023-06-22T03:25:27;16.10;99.90
54124;DHT22;55741;53.252;5.788;2023-06-22T03:27:52;16.10;99.90
54124;DHT22;55741;53.252;5.788;2023-06-22T03:30:18;16.10;99.90
54124;DHT22;55741;53.252;5.788;2023-06-22T03:32:44;16.10;99.90
54124;DHT22;55741;53.252;5.788;2023-06-22T03:35:10;16.10;99.90
54124;DHT22;55741;53.252;5.788;2023-06-22T03:37:38;16.10;99.90
54124;DHT22;55741;53.252;5.788;2023-06-22T03:40:05;16.10;99.90
54124;DHT22;55741;53.252;5.788;2023-06-22T03:42:31;16.10;99.90
54124;DHT22;55741;53.252;5.788;2023-06-22T03:44:56;16.10;99.90
54124;DHT22;55741;53.252;5.788;2023-06-22T03:47:23;16.10;99.90
54124;DHT22;55741;53.252;5.788;2023-06-22T03:49:49;16.10;99.90
54124;DHT22;55741;53.252;5.788;2023-06-22T03:52:16;16.10;99.90
54124;DHT22;55741;53.252;5.788;2023-06-22T03:54:42;16.10;99.90
54124;DHT22;55741;53.252;5.788;2023-06-22T03:57:08;16.10;99.90
54124;DHT22;55741;53.252;5.788;2023-06-22T03:59:33;16.00;99.90
54124;DHT22;55741;53.252;5.788;2023-06-22T04:01:59;16.10;99.90
54124;DHT22;55741;53.252;5.788;2023-06-22T04:04:25;16.10;99.90
54124;DHT22;55741;53.252;5.788;2023-06-22T04:06:51;16.00;99.90
54124;DHT22;55741;53.252;5.788;2023-06-22T04:09:17;16.00;99.90
54124;DHT22;55741;53.252;5.788;2023-06-22T04:11:43;15.90;99.90
54124;DHT22;55741;53.252;5.788;2023-06-22T04:14:09;15.90;99.90
54124;DHT22;55741;53.252;5.788;2023-06-22T04:16:34;16.00;99.90
54124;DHT22;55741;53.252;5.788;2023-06-22T04:19:00;16.00;99.90
54124;DHT22;55741;53.252;5.788;2023-06-22T04:21:26;16.00;99.90
54124;DHT22;55741;53.252;5.788;2023-06-22T04:23:52;16.10;99.90
54124;DHT22;55741;53.252;5.788;2023-06-22T04:26:18;16.10;99.90
54124;DHT22;55741;53.252;5.788;2023-06-22T04:28:47;16.20;99.90
54124;DHT22;55741;53.252;5.788;2023-06-22T04:31:17;16.20;99.90
54124;DHT22;55741;53.252;5.788;2023-06-22T04:33:46;16.20;99.90
54124;DHT22;55741;53.252;5.788;2023-06-22T04:36:12;16.10;99.90
54124;DHT22;55741;53.252;5.788;2023-06-22T04:38:39;16.20;99.90
54124;DHT22;55741;53.252;5.788;2023-06-22T04:41:05;16.20;99.90
54124;DHT22;55741;53.252;5.788;2023-06-22T04:43:33;16.20;99.90
54124;DHT22;55741;53.252;5.788;2023-06-22T04:45:59;16.30;99.90
54124;DHT22;55741;53.252;5.788;2023-06-22T04:48:32;16.30;99.90
54124;DHT22;55741;53.252;5.788;2023-06-22T04:50:59;16.40;99.90
54124;DHT22;55741;53.252;5.788;2023-06-22T04:53:31;16.40;99.90
54124;DHT22;55741;53.252;5.788;2023-06-22T04:55:57;16.40;99.90
54124;DHT22;55741;53.252;5.788;2023-06-22T04:58:23;16.50;99.90
54124;DHT22;55741;53.252;5.788;2023-06-22T05:00:48;16.50;99.90
54124;DHT22;55741;53.252;5.788;2023-06-22T05:03:17;16.50;99.90
54124;DHT22;55741;53.252;5.788;2023-06-22T05:05:44;16.50;99.90
54124;DHT22;55741;53.252;5.788;2023-06-22T05:08:11;16.60;99.90
54124;DHT22;55741;53.252;5.788;2023-06-22T05:10:37;16.60;99.90
54124;DHT22;55741;53.252;5.788;2023-06-22T05:13:03;16.70;99.90
54124;DHT22;55741;53.252;5.788;2023-06-22T05:15:29;16.70;99.90
54124;DHT22;55741;53.252;5.788;2023-06-22T05:17:58;16.80;99.90
54124;DHT22;55741;53.252;5.788;2023-06-22T05:20:25;16.90;99.90
54124;DHT22;55741;53.252;5.788;2023-06-22T05:22:51;17.00;99.90
54124;DHT22;55741;53.252;5.788;2023-06-22T05:25:16;17.00;99.90
54124;DHT22;55741;53.252;5.788;2023-06-22T05:27:42;17.10;99.90
54124;DHT22;55741;53.252;5.788;2023-06-22T05:30:10;17.10;99.90
54124;DHT22;55741;53.252;5.788;2023-06-22T05:32:37;17.20;99.90
54124;DHT22;55741;53.252;5.788;2023-06-22T05:35:04;17.30;99.90
54124;DHT22;55741;53.252;5.788;2023-06-22T05:37:30;17.40;99.90
54124;DHT22;55741;53.252;5.788;2023-06-22T05:39:55;17.40;99.90
54124;DHT22;55741;53.252;5.788;2023-06-22T05:42:22;17.50;99.90
54124;DHT22;55741;53.252;5.788;2023-06-22T05:44:48;17.50;99.90
54124;DHT22;55741;53.252;5.788;2023-06-22T05:47:15;17.60;99.90
54124;DHT22;55741;53.252;5.788;2023-06-22T05:49:41;17.60;99.90
54124;DHT22;55741;53.252;5.788;2023-06-22T05:52:07;17.70;99.90
54124;DHT22;55741;53.252;5.788;2023-06-22T05:54:34;17.70;99.90
54124;DHT22;55741;53.252;5.788;2023-06-22T05:57:01;17.80;99.90
54124;DHT22;55741;53.252;5.788;2023-06-22T05:59:27;17.90;99.90
54124;DHT22;55741;53.252;5.788;2023-06-22T06:01:52;17.90;99.90
54124;DHT22;55741;53.252;5.788;2023-06-22T06:04:19;18.00;99.90
54124;DHT22;55741;53.252;5.788;2023-06-22T06:06:45;18.10;99.90
54124;DHT22;55741;53.252;5.788;2023-06-22T06:09:16;18.20;99.90
54124;DHT22;55741;53.252;5.788;2023-06-22T06:11:41;18.30;99.90
54124;DHT22;55741;53.252;5.788;2023-06-22T06:14:08;18.30;99.90
54124;DHT22;55741;53.252;5.788;2023-06-22T06:16:33;18.30;99.90
54124;DHT22;55741;53.252;5.788;2023-06-22T06:18:59;18.40;99.90
54124;DHT22;55741;53.252;5.788;2023-06-22T06:21:25;18.50;99.90
54124;DHT22;55741;53.252;5.788;2023-06-22T06:23:51;18.60;99.90
54124;DHT22;55741;53.252;5.788;2023-06-22T06:26:19;18.70;99.90
54124;DHT22;55741;53.252;5.788;2023-06-22T06:28:54;18.80;99.90
54124;DHT22;55741;53.252;5.788;2023-06-22T06:31:20;18.90;99.90
54124;DHT22;55741;53.252;5.788;2023-06-22T06:33:46;19.00;99.90
54124;DHT22;55741;53.252;5.788;2023-06-22T06:36:12;19.20;99.90
54124;DHT22;55741;53.252;5.788;2023-06-22T06:38:38;19.30;99.90
54124;DHT22;55741;53.252;5.788;2023-06-22T06:41:03;19.50;99.90
54124;DHT22;55741;53.252;5.788;2023-06-22T06:43:29;19.60;99.90
54124;DHT22;55741;53.252;5.788;2023-06-22T06:45:55;19.80;99.90
54124;DHT22;55741;53.252;5.788;2023-06-22T06:48:21;20.00;99.90
54124;DHT22;55741;53.252;5.788;2023-06-22T06:50:47;20.20;99.90
54124;DHT22;55741;53.252;5.788;2023-06-22T06:53:13;20.40;99.90
54124;DHT22;55741;53.252;5.788;2023-06-22T06:55:40;20.60;99.90
54124;DHT22;55741;53.252;5.788;2023-06-22T06:58:06;20.80;99.90
54124;DHT22;55741;53.252;5.788;2023-06-22T07:00:33;21.10;99.90
54124;DHT22;55741;53.252;5.788;2023-06-22T07:03:01;21.30;99.90
54124;DHT22;55741;53.252;5.788;2023-06-22T07:05:27;21.60;99.90
54124;DHT22;55741;53.252;5.788;2023-06-22T07:07:53;21.80;99.90
54124;DHT22;55741;53.252;5.788;2023-06-22T07:10:19;22.10;99.90
54124;DHT22;55741;53.252;5.788;2023-06-22T07:12:44;22.30;99.90
54124;DHT22;55741;53.252;5.788;2023-06-22T07:15:11;22.50;99.90
54124;DHT22;55741;53.252;5.788;2023-06-22T07:17:38;22.70;99.90
54124;DHT22;55741;53.252;5.788;2023-06-22T07:20:08;22.90;99.90
54124;DHT22;55741;53.252;5.788;2023-06-22T07:22:36;23.10;99.90
54124;DHT22;55741;53.252;5.788;2023-06-22T07:25:02;23.20;99.90
54124;DHT22;55741;53.252;5.788;2023-06-22T07:27:39;23.40;99.90
54124;DHT22;55741;53.252;5.788;2023-06-22T07:30:08;23.60;99.90
54124;DHT22;55741;53.252;5.788;2023-06-22T07:32:35;23.90;99.90
54124;DHT22;55741;53.252;5.788;2023-06-22T07:35:02;24.10;99.90
54124;DHT22;55741;53.252;5.788;2023-06-22T07:37:28;24.20;99.90
54124;DHT22;55741;53.252;5.788;2023-06-22T07:39:55;24.40;99.90
54124;DHT22;55741;53.252;5.788;2023-06-22T07:42:25;24.50;99.90
54124;DHT22;55741;53.252;5.788;2023-06-22T07:44:51;24.70;99.90
54124;DHT22;55741;53.252;5.788;2023-06-22T07:47:17;24.80;99.90
54124;DHT22;55741;53.252;5.788;2023-06-22T07:49:46;24.90;99.90
54124;DHT22;55741;53.252;5.788;2023-06-22T07:52:12;25.00;99.90
54124;DHT22;55741;53.252;5.788;2023-06-22T07:54:38;25.00;99.90
54124;DHT22;55741;53.252;5.788;2023-06-22T07:57:05;25.10;99.90
54124;DHT22;55741;53.252;5.788;2023-06-22T07:59:31;25.20;99.90
54124;DHT22;55741;53.252;5.788;2023-06-22T08:01:57;25.20;99.90
54124;DHT22;55741;53.252;5.788;2023-06-22T08:04:23;25.10;99.90
54124;DHT22;55741;53.252;5.788;2023-06-22T08:06:49;25.20;99.90
54124;DHT22;55741;53.252;5.788;2023-06-22T08:09:15;25.20;99.90
54124;DHT22;55741;53.252;5.788;2023-06-22T08:11:41;25.20;99.90
54124;DHT22;55741;53.252;5.788;2023-06-22T08:14:07;25.30;99.90
54124;DHT22;55741;53.252;5.788;2023-06-22T08:16:33;25.40;99.90
54124;DHT22;55741;53.252;5.788;2023-06-22T08:18:58;25.60;99.90
54124;DHT22;55741;53.252;5.788;2023-06-22T08:21:24;25.70;99.90
54124;DHT22;55741;53.252;5.788;2023-06-22T08:23:50;25.80;99.90
54124;DHT22;55741;53.252;5.788;2023-06-22T08:26:16;25.90;99.90
54124;DHT22;55741;53.252;5.788;2023-06-22T08:28:42;26.00;99.90
54124;DHT22;55741;53.252;5.788;2023-06-22T08:31:08;26.00;99.90
54124;DHT22;55741;53.252;5.788;2023-06-22T08:33:34;26.00;99.90
54124;DHT22;55741;53.252;5.788;2023-06-22T08:36:00;26.10;99.90
54124;DHT22;55741;53.252;5.788;2023-06-22T08:38:26;26.10;99.90
54124;DHT22;55741;53.252;5.788;2023-06-22T08:40:52;26.20;99.90
54124;DHT22;55741;53.252;5.788;2023-06-22T08:43:18;26.20;99.90
54124;DHT22;55741;53.252;5.788;2023-06-22T08:45:44;26.40;99.90
54124;DHT22;55741;53.252;5.788;2023-06-22T08:48:10;26.40;99.90
54124;DHT22;55741;53.252;5.788;2023-06-22T08:50:36;26.50;99.90
54124;DHT22;55741;53.252;5.788;2023-06-22T08:53:02;26.50;99.90
54124;DHT22;55741;53.252;5.788;2023-06-22T08:55:28;26.50;99.90
54124;DHT22;55741;53.252;5.788;2023-06-22T08:57:55;26.50;99.90
54124;DHT22;55741;53.252;5.788;2023-06-22T09:00:21;26.50;99.90
54124;DHT22;55741;53.252;5.788;2023-06-22T09:02:47;26.50;99.90
54124;DHT22;55741;53.252;5.788;2023-06-22T09:05:14;26.60;99.90
54124;DHT22;55741;53.252;5.788;2023-06-22T09:07:40;26.60;99.90
54124;DHT22;55741;53.252;5.788;2023-06-22T09:10:06;26.70;99.90
54124;DHT22;55741;53.252;5.788;2023-06-22T09:12:33;26.80;99.90
54124;DHT22;55741;53.252;5.788;2023-06-22T09:15:00;26.90;99.90
54124;DHT22;55741;53.252;5.788;2023-06-22T09:17:26;26.90;99.90
54124;DHT22;55741;53.252;5.788;2023-06-22T09:19:52;27.10;99.90
54124;DHT22;55741;53.252;5.788;2023-06-22T09:22:18;27.10;99.90
54124;DHT22;55741;53.252;5.788;2023-06-22T09:24:44;27.20;99.90
54124;DHT22;55741;53.252;5.788;2023-06-22T09:27:10;27.30;99.90
54124;DHT22;55741;53.252;5.788;2023-06-22T09:29:35;27.40;99.90
54124;DHT22;55741;53.252;5.788;2023-06-22T09:32:01;27.40;99.90
54124;DHT22;55741;53.252;5.788;2023-06-22T09:34:27;27.40;99.90
54124;DHT22;55741;53.252;5.788;2023-06-22T09:36:53;27.50;99.90
54124;DHT22;55741;53.252;5.788;2023-06-22T09:39:20;27.60;99.90
54124;DHT22;55741;53.252;5.788;2023-06-22T09:41:46;27.50;99.90
54124;DHT22;55741;53.252;5.788;2023-06-22T09:44:12;27.60;99.90
54124;DHT22;55741;53.252;5.788;2023-06-22T09:46:38;27.70;99.90
54124;DHT22;55741;53.252;5.788;2023-06-22T09:49:04;27.70;99.60
54124;DHT22;55741;53.252;5.788;2023-06-22T09:51:29;27.60;99.70
54124;DHT22;55741;53.252;5.788;2023-06-22T09:53:55;27.60;99.90
54124;DHT22;55741;53.252;5.788;2023-06-22T09:56:21;27.70;99.90
54124;DHT22;55741;53.252;5.788;2023-06-22T09:58:49;27.70;99.90
54124;DHT22;55741;53.252;5.788;2023-06-22T10:01:18;27.60;99.90
54124;DHT22;55741;53.252;5.788;2023-06-22T10:03:44;27.50;99.80
54124;DHT22;55741;53.252;5.788;2023-06-22T10:06:10;27.40;99.60
54124;DHT22;55741;53.252;5.788;2023-06-22T10:08:36;27.50;99.70
54124;DHT22;55741;53.252;5.788;2023-06-22T10:11:03;27.50;99.90
54124;DHT22;55741;53.252;5.788;2023-06-22T10:13:29;27.50;99.90
54124;DHT22;55741;53.252;5.788;2023-06-22T10:15:55;27.50;99.90
54124;DHT22;55741;53.252;5.788;2023-06-22T10:18:21;27.50;99.90
54124;DHT22;55741;53.252;5.788;2023-06-22T10:20:48;27.50;99.90
54124;DHT22;55741;53.252;5.788;2023-06-22T10:23:17;27.40;99.90
54124;DHT22;55741;53.252;5.788;2023-06-22T10:25:43;27.50;99.90
54124;DHT22;55741;53.252;5.788;2023-06-22T10:28:08;27.50;99.60
54124;DHT22;55741;53.252;5.788;2023-06-22T10:30:34;27.60;99.80
54124;DHT22;55741;53.252;5.788;2023-06-22T10:33:00;27.70;99.50
54124;DHT22;55741;53.252;5.788;2023-06-22T10:35:26;27.80;99.20
54124;DHT22;55741;53.252;5.788;2023-06-22T10:37:52;27.90;99.10
54124;DHT22;55741;53.252;5.788;2023-06-22T10:40:20;28.00;98.40
54124;DHT22;55741;53.252;5.788;2023-06-22T10:42:45;28.10;98.90
54124;DHT22;55741;53.252;5.788;2023-06-22T10:45:11;28.10;98.80
54124;DHT22;55741;53.252;5.788;2023-06-22T10:47:37;28.20;99.00
54124;DHT22;55741;53.252;5.788;2023-06-22T10:50:04;28.30;99.10
54124;DHT22;55741;53.252;5.788;2023-06-22T10:52:30;28.40;98.80
54124;DHT22;55741;53.252;5.788;2023-06-22T10:54:56;28.50;98.90
54124;DHT22;55741;53.252;5.788;2023-06-22T10:57:22;28.60;98.50
54124;DHT22;55741;53.252;5.788;2023-06-22T10:59:49;28.50;97.60
54124;DHT22;55741;53.252;5.788;2023-06-22T11:02:15;28.40;98.10
54124;DHT22;55741;53.252;5.788;2023-06-22T11:04:41;28.30;98.30
54124;DHT22;55741;53.252;5.788;2023-06-22T11:07:07;28.30;98.50
54124;DHT22;55741;53.252;5.788;2023-06-22T11:09:32;28.30;98.50
54124;DHT22;55741;53.252;5.788;2023-06-22T11:11:58;28.40;98.30
54124;DHT22;55741;53.252;5.788;2023-06-22T11:14:25;28.30;97.80
54124;DHT22;55741;53.252;5.788;2023-06-22T11:16:51;28.30;98.10
54124;DHT22;55741;53.252;5.788;2023-06-22T11:19:18;28.30;98.10
54124;DHT22;55741;53.252;5.788;2023-06-22T11:21:44;28.40;97.60
54124;DHT22;55741;53.252;5.788;2023-06-22T11:24:10;28.40;97.70
54124;DHT22;55741;53.252;5.788;2023-06-22T11:26:36;28.30;97.10
54124;DHT22;55741;53.252;5.788;2023-06-22T11:29:02;28.40;97.90
54124;DHT22;55741;53.252;5.788;2023-06-22T11:31:35;28.40;97.60
54124;DHT22;55741;53.252;5.788;2023-06-22T11:34:01;28.30;97.00
54124;DHT22;55741;53.252;5.788;2023-06-22T11:36:27;28.20;97.30
54124;DHT22;55741;53.252;5.788;2023-06-22T11:38:53;28.10;97.00
54124;DHT22;55741;53.252;5.788;2023-06-22T11:41:19;28.10;97.80
54124;DHT22;55741;53.252;5.788;2023-06-22T11:43:45;28.10;97.50
54124;DHT22;55741;53.252;5.788;2023-06-22T11:46:11;28.10;97.10
54124;DHT22;55741;53.252;5.788;2023-06-22T11:48:37;28.20;96.60
54124;DHT22;55741;53.252;5.788;2023-06-22T11:51:03;28.40;96.90
54124;DHT22;55741;53.252;5.788;2023-06-22T11:53:29;28.50;96.70
54124;DHT22;55741;53.252;5.788;2023-06-22T11:55:56;28.70;96.20
54124;DHT22;55741;53.252;5.788;2023-06-22T11:58:22;28.70;95.80
54124;DHT22;55741;53.252;5.788;2023-06-22T12:00:50;28.90;95.90
54124;DHT22;55741;53.252;5.788;2023-06-22T12:03:18;29.00;95.90
54124;DHT22;55741;53.252;5.788;2023-06-22T12:05:43;29.10;95.40
54124;DHT22;55741;53.252;5.788;2023-06-22T12:08:09;29.10;94.70
54124;DHT22;55741;53.252;5.788;2023-06-22T12:10:35;29.00;94.80
54124;DHT22;55741;53.252;5.788;2023-06-22T12:13:01;29.00;95.00
54124;DHT22;55741;53.252;5.788;2023-06-22T12:15:27;29.00;95.00
54124;DHT22;55741;53.252;5.788;2023-06-22T12:17:53;29.10;94.80
54124;DHT22;55741;53.252;5.788;2023-06-22T12:20:19;29.20;94.60
54124;DHT22;55741;53.252;5.788;2023-06-22T12:22:45;29.20;94.60
54124;DHT22;55741;53.252;5.788;2023-06-22T12:25:11;29.20;94.90
54124;DHT22;55741;53.252;5.788;2023-06-22T12:27:37;29.30;94.60
54124;DHT22;55741;53.252;5.788;2023-06-22T12:30:04;29.40;94.30
54124;DHT22;55741;53.252;5.788;2023-06-22T12:32:30;29.40;93.90
54124;DHT22;55741;53.252;5.788;2023-06-22T12:34:56;29.30;93.60
54124;DHT22;55741;53.252;5.788;2023-06-22T12:37:23;29.10;93.20
54124;DHT22;55741;53.252;5.788;2023-06-22T12:39:49;29.00;93.10
54124;DHT22;55741;53.252;5.788;2023-06-22T12:42:16;29.00;93.20
54124;DHT22;55741;53.252;5.788;2023-06-22T12:44:42;28.80;93.10
54124;DHT22;55741;53.252;5.788;2023-06-22T12:47:09;28.50;93.40
54124;DHT22;55741;53.252;5.788;2023-06-22T12:49:37;28.20;93.20
54124;DHT22;55741;53.252;5.788;2023-06-22T12:52:08;28.10;94.40
54124;DHT22;55741;53.252;5.788;2023-06-22T12:54:34;28.10;94.20
54124;DHT22;55741;53.252;5.788;2023-06-22T12:57:01;28.10;94.60
54124;DHT22;55741;53.252;5.788;2023-06-22T12:59:27;28.10;94.10
54124;DHT22;55741;53.252;5.788;2023-06-22T13:01:54;28.00;94.00
54124;DHT22;55741;53.252;5.788;2023-06-22T13:04:20;28.00;93.80
54124;DHT22;55741;53.252;5.788;2023-06-22T13:06:46;27.90;94.00
54124;DHT22;55741;53.252;5.788;2023-06-22T13:09:18;27.80;94.10
54124;DHT22;55741;53.252;5.788;2023-06-22T13:11:44;27.60;93.90
54124;DHT22;55741;53.252;5.788;2023-06-22T13:14:10;27.50;93.90
54124;DHT22;55741;53.252;5.788;2023-06-22T13:16:36;27.30;93.90
54124;DHT22;55741;53.252;5.788;2023-06-22T13:19:02;27.00;94.00
54124;DHT22;55741;53.252;5.788;2023-06-22T13:21:28;26.80;94.40
54124;DHT22;55741;53.252;5.788;2023-06-22T13:23:54;26.60;94.40
54124;DHT22;55741;53.252;5.788;2023-06-22T13:26:21;26.50;94.40
54124;DHT22;55741;53.252;5.788;2023-06-22T13:28:46;26.40;94.60
54124;DHT22;55741;53.252;5.788;2023-06-22T13:31:12;26.30;95.00
54124;DHT22;55741;53.252;5.788;2023-06-22T13:33:38;26.20;95.20
54124;DHT22;55741;53.252;5.788;2023-06-22T13:36:07;26.10;95.40
54124;DHT22;55741;53.252;5.788;2023-06-22T13:38:35;26.00;95.70
54124;DHT22;55741;53.252;5.788;2023-06-22T13:41:04;25.90;95.80
54124;DHT22;55741;53.252;5.788;2023-06-22T13:43:30;25.80;95.80
54124;DHT22;55741;53.252;5.788;2023-06-22T13:45:56;25.80;95.70
54124;DHT22;55741;53.252;5.788;2023-06-22T13:48:22;25.80;96.00
54124;DHT22;55741;53.252;5.788;2023-06-22T13:50:49;25.60;96.10
54124;DHT22;55741;53.252;5.788;2023-06-22T13:53:15;25.60;95.90
54124;DHT22;55741;53.252;5.788;2023-06-22T13:55:41;25.40;95.30
54124;DHT22;55741;53.252;5.788;2023-06-22T13:58:06;25.30;96.00
54124;DHT22;55741;53.252;5.788;2023-06-22T14:00:32;25.20;95.70
54124;DHT22;55741;53.252;5.788;2023-06-22T14:03:00;25.10;96.10
54124;DHT22;55741;53.252;5.788;2023-06-22T14:05:26;25.00;96.20
54124;DHT22;55741;53.252;5.788;2023-06-22T14:07:51;25.00;96.70
54124;DHT22;55741;53.252;5.788;2023-06-22T14:10:17;24.90;96.90
54124;DHT22;55741;53.252;5.788;2023-06-22T14:12:43;24.90;96.70
54124;DHT22;55741;53.252;5.788;2023-06-22T14:15:10;24.90;96.30
54124;DHT22;55741;53.252;5.788;2023-06-22T14:17:36;24.80;96.20
54124;DHT22;55741;53.252;5.788;2023-06-22T14:20:02;24.70;96.40
54124;DHT22;55741;53.252;5.788;2023-06-22T14:22:29;24.60;96.70
54124;DHT22;55741;53.252;5.788;2023-06-22T14:24:55;24.40;97.00
54124;DHT22;55741;53.252;5.788;2023-06-22T14:27:23;24.30;97.50
54124;DHT22;55741;53.252;5.788;2023-06-22T14:29:49;24.20;97.90
54124;DHT22;55741;53.252;5.788;2023-06-22T14:32:14;23.90;98.00
54124;DHT22;55741;53.252;5.788;2023-06-22T14:34:40;23.70;98.30
54124;DHT22;55741;53.252;5.788;2023-06-22T14:37:07;23.60;98.30
54124;DHT22;55741;53.252;5.788;2023-06-22T14:39:33;23.40;98.00
54124;DHT22;55741;53.252;5.788;2023-06-22T14:41:59;23.30;98.30
54124;DHT22;55741;53.252;5.788;2023-06-22T14:44:26;23.30;98.50
54124;DHT22;55741;53.252;5.788;2023-06-22T14:46:55;23.20;98.90
54124;DHT22;55741;53.252;5.788;2023-06-22T14:49:21;23.30;98.90
54124;DHT22;55741;53.252;5.788;2023-06-22T14:51:46;23.10;98.70
54124;DHT22;55741;53.252;5.788;2023-06-22T14:54:12;23.10;99.10
54124;DHT22;55741;53.252;5.788;2023-06-22T14:56:38;23.10;99.20
54124;DHT22;55741;53.252;5.788;2023-06-22T14:59:04;23.10;99.00
54124;DHT22;55741;53.252;5.788;2023-06-22T15:01:30;23.10;98.70
54124;DHT22;55741;53.252;5.788;2023-06-22T15:03:57;23.20;98.70
54124;DHT22;55741;53.252;5.788;2023-06-22T15:06:23;23.30;98.80
54124;DHT22;55741;53.252;5.788;2023-06-22T15:08:49;23.30;98.70
54124;DHT22;55741;53.252;5.788;2023-06-22T15:11:15;23.30;98.80
54124;DHT22;55741;53.252;5.788;2023-06-22T15:13:41;23.30;99.20
54124;DHT22;55741;53.252;5.788;2023-06-22T15:16:08;23.30;99.40
54124;DHT22;55741;53.252;5.788;2023-06-22T15:18:34;23.30;99.50
54124;DHT22;55741;53.252;5.788;2023-06-22T15:21:02;23.30;99.60
54124;DHT22;55741;53.252;5.788;2023-06-22T15:23:29;23.20;99.30
54124;DHT22;55741;53.252;5.788;2023-06-22T15:25:55;23.20;99.30
54124;DHT22;55741;53.252;5.788;2023-06-22T15:28:21;23.20;99.00
54124;DHT22;55741;53.252;5.788;2023-06-22T15:30:48;23.10;99.10
54124;DHT22;55741;53.252;5.788;2023-06-22T15:33:14;23.00;99.10